Time;durP1;ratioP1;P1;durP2;ratioP2;P2;SDS_P1;SDS_P2;PMS_P1;PMS_P2;Temp;Humidity;BMP_temperature;BMP_pressure;BME280_temperature;BME280_humidity;BME280_pressure;Samples;Min_cycle;Max_cycle;Signal;HPM_P1;HPM_P2
2023/08/07 00:00:37;;;;;;;2.80;2.10;;;;;;;18.20;100.00;98344.53;5112218;28;20257;-57
2023/08/07 00:03:06;;;;;;;2.97;2.17;;;;;;;18.22;100.00;98350.34;5112049;28;20197;-57
2023/08/07 00:05:33;;;;;;;4.00;2.30;;;;;;;18.13;100.00;98351.41;5112149;28;20196;-57
2023/08/07 00:07:59;;;;;;;3.37;2.40;;;;;;;18.07;100.00;98349.53;5112205;28;20205;-57
2023/08/07 00:10:26;;;;;;;3.07;2.40;;;;;;;18.05;100.00;98354.06;5112058;28;20212;-57
2023/08/07 00:12:54;;;;;;;3.43;2.30;;;;;;;18.14;100.00;98362.56;5111812;28;20214;-57
2023/08/07 00:15:20;;;;;;;3.27;2.30;;;;;;;18.01;100.00;98360.59;5111945;28;20254;-58
2023/08/07 00:17:47;;;;;;;2.80;2.10;;;;;;;18.08;100.00;98364.06;5111877;28;20210;-57
2023/08/07 00:20:15;;;;;;;3.83;2.30;;;;;;;18.09;100.00;98370.84;5111906;28;20234;-57
2023/08/07 00:22:42;;;;;;;3.20;2.30;;;;;;;18.04;100.00;98357.66;5111753;28;20208;-57
2023/08/07 00:25:09;;;;;;;3.33;2.03;;;;;;;17.94;100.00;98362.25;5112016;28;20363;-57
2023/08/07 00:27:36;;;;;;;3.80;2.27;;;;;;;17.98;100.00;98368.72;5111963;28;20212;-58
2023/08/07 00:30:03;;;;;;;2.83;2.00;;;;;;;17.91;100.00;98362.63;5111605;28;20200;-57
2023/08/07 00:32:30;;;;;;;3.20;2.27;;;;;;;17.98;100.00;98371.28;5111655;28;20215;-57
2023/08/07 00:34:57;;;;;;;3.50;2.20;;;;;;;17.86;100.00;98382.06;5111245;28;20830;-57
2023/08/07 00:37:25;;;;;;;2.83;1.93;;;;;;;17.83;100.00;98369.47;5111608;28;20207;-57
2023/08/07 00:39:52;;;;;;;2.40;2.00;;;;;;;17.86;100.00;98371.72;5111722;28;20696;-57
2023/08/07 00:42:19;;;;;;;3.37;2.30;;;;;;;17.85;100.00;98375.25;5111357;28;20215;-57
2023/08/07 00:44:46;;;;;;;3.00;2.27;;;;;;;17.78;100.00;98378.72;5111332;28;20201;-57
2023/08/07 00:47:13;;;;;;;3.80;2.33;;;;;;;17.76;100.00;98375.47;5111191;28;20212;-58
2023/08/07 00:49:40;;;;;;;3.90;2.50;;;;;;;17.76;100.00;98380.66;5111214;28;20695;-57
2023/08/07 00:52:08;;;;;;;2.90;2.23;;;;;;;17.71;100.00;98383.75;5110969;28;20435;-57
2023/08/07 00:54:36;;;;;;;3.07;1.93;;;;;;;17.71;100.00;98378.56;5111083;28;20719;-57
2023/08/07 00:57:11;;;;;;;2.70;2.03;;;;;;;17.70;100.00;98386.53;5111046;27;20209;-57
2023/08/07 00:59:38;;;;;;;3.20;2.13;;;;;;;17.70;100.00;98391.69;5111220;28;20756;-57
2023/08/07 01:02:05;;;;;;;3.23;2.20;;;;;;;17.67;100.00;98392.84;5110701;28;20200;-57
2023/08/07 01:04:32;;;;;;;3.10;2.20;;;;;;;17.59;100.00;98400.66;5110424;28;20200;-57
2023/08/07 01:06:59;;;;;;;4.47;2.40;;;;;;;17.57;100.00;98402.59;5110816;28;20208;-57
2023/08/07 01:09:27;;;;;;;2.77;1.90;;;;;;;17.57;100.00;98412.94;5111197;28;20726;-57
2023/08/07 01:12:02;;;;;;;3.03;2.10;;;;;;;17.54;100.00;98418.44;5110789;28;20569;-57
2023/08/07 01:14:38;;;;;;;3.63;2.30;;;;;;;17.57;100.00;98420.69;5110774;28;20196;-57
2023/08/07 01:17:08;;;;;;;5.53;2.07;;;;;;;17.54;100.00;98433.94;5110918;28;20252;-57
2023/08/07 01:19:36;;;;;;;3.13;2.13;;;;;;;17.53;100.00;98432.34;5110836;28;20593;-57
2023/08/07 01:22:08;;;;;;;2.40;1.90;;;;;;;17.43;100.00;98430.81;5110631;28;20223;-57
2023/08/07 01:24:36;;;;;;;2.87;1.83;;;;;;;17.42;100.00;98434.38;5110789;28;20195;-57
2023/08/07 01:27:16;;;;;;;2.67;2.10;;;;;;;17.33;100.00;98432.78;5110265;28;20616;-57
2023/08/07 01:29:51;;;;;;;3.70;1.73;;;;;;;17.31;100.00;98432.16;5110640;28;20196;-57
2023/08/07 01:32:27;;;;;;;2.40;1.77;;;;;;;17.28;100.00;98439.44;5110273;28;20373;-57
2023/08/07 01:34:56;;;;;;;4.03;2.20;;;;;;;17.29;100.00;98436.69;5110403;28;20228;-57
2023/08/07 01:37:29;;;;;;;2.30;1.80;;;;;;;17.28;100.00;98427.34;5110490;28;20220;-57
2023/08/07 01:39:57;;;;;;;2.27;1.50;;;;;;;17.23;100.00;98432.19;5110835;28;20182;-57
2023/08/07 01:42:24;;;;;;;2.53;1.77;;;;;;;17.24;100.00;98438.97;5110690;28;20206;-57
2023/08/07 01:44:51;;;;;;;3.43;2.20;;;;;;;17.27;100.00;98440.41;5110314;28;20199;-57
2023/08/07 01:47:18;;;;;;;3.27;1.90;;;;;;;17.30;100.00;98438.28;5110068;28;20200;-57
2023/08/07 01:49:45;;;;;;;3.20;2.10;;;;;;;17.27;100.00;98428.28;5110385;28;20225;-57
2023/08/07 01:52:13;;;;;;;3.57;2.37;;;;;;;17.24;100.00;98436.38;5110098;28;20582;-56
2023/08/07 01:54:41;;;;;;;3.13;2.17;;;;;;;17.24;100.00;98444.13;5110131;28;20285;-57
2023/08/07 01:57:08;;;;;;;3.87;2.50;;;;;;;17.28;100.00;98445.44;5110230;28;20203;-57
2023/08/07 01:59:34;;;;;;;3.50;2.33;;;;;;;17.18;100.00;98442.22;5109994;28;20671;-57
2023/08/07 02:02:01;;;;;;;5.57;2.83;;;;;;;17.14;100.00;98446.13;5109706;28;20625;-57
2023/08/07 02:04:28;;;;;;;4.90;2.93;;;;;;;17.16;100.00;98449.34;5109871;28;20527;-57
2023/08/07 02:06:55;;;;;;;4.33;2.90;;;;;;;17.14;100.00;98459.06;5109629;28;20194;-57
2023/08/07 02:09:22;;;;;;;4.10;2.57;;;;;;;17.13;100.00;98452.25;5110031;28;20201;-57
2023/08/07 02:11:51;;;;;;;5.23;2.80;;;;;;;17.10;100.00;98447.44;5109744;28;20198;-57
2023/08/07 02:14:17;;;;;;;5.33;2.60;;;;;;;17.12;100.00;98461.78;5109670;28;20203;-57
2023/08/07 02:16:44;;;;;;;3.73;2.60;;;;;;;17.12;100.00;98461.00;5108844;28;20249;-57
2023/08/07 02:19:11;;;;;;;5.03;2.73;;;;;;;17.09;100.00;98461.31;5109478;28;20210;-57
2023/08/07 02:21:38;;;;;;;3.00;2.33;;;;;;;17.08;100.00;98454.56;5109654;28;20221;-57
2023/08/07 02:24:05;;;;;;;4.07;2.47;;;;;;;17.09;100.00;98464.72;5109352;28;20199;-57
2023/08/07 02:26:32;;;;;;;3.60;2.53;;;;;;;17.09;100.00;98466.50;5109272;28;20206;-56
2023/08/07 02:29:02;;;;;;;3.13;2.33;;;;;;;17.03;100.00;98462.00;5109372;28;20204;-57
2023/08/07 02:31:28;;;;;;;3.80;2.50;;;;;;;17.00;100.00;98457.16;5109201;27;20696;-57
2023/08/07 02:33:55;;;;;;;3.43;2.40;;;;;;;16.97;100.00;98448.78;5109201;28;20199;-56
2023/08/07 02:36:22;;;;;;;8.00;2.67;;;;;;;16.91;100.00;98459.78;5109207;28;20226;-58
2023/08/07 02:38:49;;;;;;;3.37;2.43;;;;;;;16.89;100.00;98461.72;5109153;28;20788;-57
2023/08/07 02:41:16;;;;;;;3.93;2.53;;;;;;;16.86;100.00;98467.22;5109069;28;20204;-57
2023/08/07 02:43:42;;;;;;;3.40;2.33;;;;;;;16.88;100.00;98465.28;5108804;28;20209;-57
2023/08/07 02:46:11;;;;;;;3.77;2.60;;;;;;;16.82;100.00;98467.72;5109086;28;20196;-57
2023/08/07 02:48:39;;;;;;;3.00;2.50;;;;;;;16.85;100.00;98473.34;5108747;28;20220;-56
2023/08/07 02:51:06;;;;;;;4.20;2.50;;;;;;;16.86;100.00;98469.78;5109459;28;20194;-57
2023/08/07 02:53:33;;;;;;;4.20;2.43;;;;;;;16.82;100.00;98476.28;5109067;28;20203;-57
2023/08/07 02:55:59;;;;;;;4.17;2.67;;;;;;;16.77;100.00;98473.38;5108843;28;20240;-57
2023/08/07 02:58:26;;;;;;;3.80;2.73;;;;;;;16.84;100.00;98484.66;5108866;28;20205;-56
2023/08/07 03:00:53;;;;;;;4.17;2.80;;;;;;;16.79;100.00;98486.13;5108773;28;20224;-57
2023/08/07 03:03:21;;;;;;;3.63;2.40;;;;;;;16.73;100.00;98492.72;5108994;28;20197;-57
2023/08/07 03:05:51;;;;;;;4.00;2.80;;;;;;;16.75;100.00;98490.75;5109017;28;20213;-57
2023/08/07 03:08:18;;;;;;;3.97;2.80;;;;;;;16.82;100.00;98489.19;5108547;28;20218;-56
2023/08/07 03:10:52;;;;;;;5.23;3.13;;;;;;;16.69;100.00;98476.72;5108598;28;20578;-57
2023/08/07 03:13:19;;;;;;;4.00;2.70;;;;;;;16.75;100.00;98483.00;5108530;28;20265;-57
2023/08/07 03:15:46;;;;;;;5.17;3.10;;;;;;;16.71;100.00;98469.63;5108281;28;20525;-56
2023/08/07 03:18:13;;;;;;;5.97;3.17;;;;;;;16.75;100.00;98459.78;5108530;28;20197;-57
2023/08/07 03:20:43;;;;;;;4.70;3.20;;;;;;;16.74;100.00;98469.31;5108722;28;20201;-57
2023/08/07 03:23:10;;;;;;;5.23;3.43;;;;;;;16.72;100.00;98454.94;5108387;28;20193;-56
2023/08/07 03:25:36;;;;;;;5.60;3.10;;;;;;;16.72;100.00;98460.13;5108445;28;20420;-57
2023/08/07 03:28:04;;;;;;;5.30;3.30;;;;;;;16.72;100.00;98454.94;5108145;28;20206;-57
2023/08/07 03:30:30;;;;;;;5.67;3.10;;;;;;;16.74;100.00;98447.84;5108307;28;20685;-57
2023/08/07 03:32:57;;;;;;;5.70;3.40;;;;;;;16.70;100.00;98441.44;5108263;28;20784;-56
2023/08/07 03:35:24;;;;;;;4.23;3.03;;;;;;;16.72;100.00;98455.75;5108148;28;20198;-57
2023/08/07 03:37:52;;;;;;;8.93;3.30;;;;;;;16.78;100.00;98448.34;5108635;28;20197;-57
2023/08/07 03:40:19;;;;;;;5.97;3.47;;;;;;;16.76;100.00;98456.28;5108541;28;20205;-57
2023/08/07 03:42:46;;;;;;;5.33;3.50;;;;;;;16.77;100.00;98452.72;5108288;28;20232;-56
2023/08/07 03:45:13;;;;;;;4.47;3.33;;;;;;;16.79;100.00;98447.41;5108055;28;20776;-56
2023/08/07 03:47:39;;;;;;;4.67;3.10;;;;;;;16.77;100.00;98451.91;5107825;28;20532;-57
2023/08/07 03:50:07;;;;;;;7.27;2.87;;;;;;;16.77;100.00;98457.88;5108265;28;20198;-56
2023/08/07 03:52:34;;;;;;;4.80;2.93;;;;;;;16.79;100.00;98461.09;5108232;28;20593;-57
2023/08/07 03:55:02;;;;;;;5.13;3.20;;;;;;;16.81;100.00;98474.63;5107901;28;20207;-56
2023/08/07 03:57:29;;;;;;;4.87;3.10;;;;;;;16.83;100.00;98472.69;5107958;28;20743;-56
2023/08/07 03:59:56;;;;;;;6.30;3.63;;;;;;;16.87;100.00;98483.50;5107913;28;20198;-57
2023/08/07 04:02:23;;;;;;;3.80;2.80;;;;;;;16.91;100.00;98480.44;5107985;28;20228;-57
2023/08/07 04:04:50;;;;;;;4.90;2.70;;;;;;;16.91;100.00;98490.75;5108000;28;20208;-57
2023/08/07 04:07:17;;;;;;;4.37;2.73;;;;;;;16.96;100.00;98488.50;5108119;28;20201;-57
2023/08/07 04:09:44;;;;;;;5.17;2.90;;;;;;;17.00;100.00;98488.97;5107913;28;20197;-57
2023/08/07 04:12:12;;;;;;;4.53;2.83;;;;;;;17.02;100.00;98491.38;5107729;28;20205;-57
2023/08/07 04:14:39;;;;;;;7.33;2.93;;;;;;;17.04;100.00;98485.06;5107812;28;20202;-57
2023/08/07 04:17:06;;;;;;;4.67;2.90;;;;;;;17.09;100.00;98487.16;5107639;28;20701;-57
2023/08/07 04:19:33;;;;;;;4.70;2.90;;;;;;;17.06;100.00;98485.72;5107780;28;20744;-57
2023/08/07 04:22:00;;;;;;;3.53;2.43;;;;;;;17.13;100.00;98483.25;5107693;28;20201;-57
2023/08/07 04:24:27;;;;;;;4.03;2.60;;;;;;;17.10;100.00;98486.97;5108183;28;20201;-57
2023/08/07 04:26:54;;;;;;;7.93;3.27;;;;;;;17.15;100.00;98486.47;5107832;28;20586;-57
2023/08/07 04:29:22;;;;;;;3.83;2.70;;;;;;;17.25;100.00;98492.28;5108011;28;20259;-56
2023/08/07 04:31:49;;;;;;;3.20;2.17;;;;;;;17.23;100.00;98485.66;5107793;28;20205;-58
2023/08/07 04:34:15;;;;;;;4.57;3.00;;;;;;;17.31;100.00;98491.59;5107726;28;20202;-57
2023/08/07 04:36:42;;;;;;;4.23;2.63;;;;;;;17.34;100.00;98495.63;5107750;28;20250;-57
2023/08/07 04:39:09;;;;;;;4.43;2.87;;;;;;;17.41;100.00;98507.69;5107554;28;20604;-57
2023/08/07 04:41:36;;;;;;;4.90;3.20;;;;;;;17.45;100.00;98502.97;5111013;28;20199;-57
2023/08/07 04:44:03;;;;;;;3.83;2.87;;;;;;;17.54;100.00;98506.31;5111867;28;20211;-57
2023/08/07 04:46:33;;;;;;;6.27;3.33;;;;;;;17.67;100.00;98496.25;5111298;28;20695;-57
2023/08/07 04:49:00;;;;;;;4.27;2.90;;;;;;;17.82;100.00;98499.72;5111493;28;20235;-57
2023/08/07 04:51:28;;;;;;;5.03;2.93;;;;;;;17.86;100.00;98495.03;5111513;28;20285;-56
2023/08/07 04:53:56;;;;;;;4.83;3.03;;;;;;;17.87;100.00;98505.19;5111520;28;20195;-57
2023/08/07 04:56:23;;;;;;;4.77;2.93;;;;;;;17.94;100.00;98501.94;5111683;28;20232;-57
2023/08/07 04:58:50;;;;;;;4.63;2.53;;;;;;;18.15;100.00;98504.69;5111092;28;20203;-57
2023/08/07 05:01:17;;;;;;;4.43;2.80;;;;;;;18.20;100.00;98517.91;5111315;28;20206;-57
2023/08/07 05:03:45;;;;;;;4.17;2.97;;;;;;;18.32;100.00;98516.53;5110931;28;20220;-57
2023/08/07 05:06:12;;;;;;;4.17;2.83;;;;;;;18.42;100.00;98525.84;5111002;28;20197;-57
2023/08/07 05:08:39;;;;;;;3.77;2.93;;;;;;;18.54;100.00;98530.41;5111208;28;20205;-57
2023/08/07 05:11:06;;;;;;;4.40;2.90;;;;;;;18.68;100.00;98513.28;5111121;28;20195;-58
2023/08/07 05:13:33;;;;;;;3.33;2.50;;;;;;;18.78;100.00;98524.22;5110649;28;20198;-57
2023/08/07 05:16:00;;;;;;;4.23;2.83;;;;;;;18.81;100.00;98535.22;5110902;28;20307;-57
2023/08/07 05:18:26;;;;;;;3.60;2.40;;;;;;;18.87;99.53;98529.31;5111085;28;20205;-57
2023/08/07 05:20:55;;;;;;;4.63;3.00;;;;;;;18.98;99.27;98547.81;5110795;28;20198;-57
2023/08/07 05:23:21;;;;;;;4.27;2.77;;;;;;;19.14;100.00;98541.66;5111097;27;20193;-57
2023/08/07 05:25:49;;;;;;;4.70;2.80;;;;;;;19.33;99.04;98537.72;5110662;28;20697;-57
2023/08/07 05:28:15;;;;;;;3.63;2.73;;;;;;;19.50;97.62;98540.13;5110635;28;20670;-57
2023/08/07 05:30:42;;;;;;;3.53;2.70;;;;;;;19.60;94.30;98556.19;5110514;28;20213;-57
2023/08/07 05:33:09;;;;;;;3.50;2.50;;;;;;;19.68;95.24;98558.69;5110399;28;20198;-57
2023/08/07 05:35:38;;;;;;;6.17;2.63;;;;;;;19.83;93.63;98561.25;5110761;28;20201;-57
2023/08/07 05:38:06;;;;;;;3.83;2.10;;;;;;;19.91;93.06;98563.75;5110446;28;20237;-57
2023/08/07 05:40:35;;;;;;;2.97;2.20;;;;;;;20.05;92.32;98562.91;5110687;28;20214;-57
2023/08/07 05:43:02;;;;;;;3.77;2.77;;;;;;;20.21;92.68;98569.63;5110652;27;20298;-57
2023/08/07 05:45:29;;;;;;;4.53;2.67;;;;;;;20.28;90.64;98564.53;5110492;28;20590;-57
2023/08/07 05:47:56;;;;;;;2.97;2.33;;;;;;;20.25;90.12;98559.69;5110090;28;20214;-57
2023/08/07 05:50:22;;;;;;;3.07;2.33;;;;;;;20.29;90.27;98576.50;5110575;28;20202;-57
2023/08/07 05:52:49;;;;;;;6.27;2.53;;;;;;;20.40;88.20;98583.78;5110418;28;20839;-57
2023/08/07 05:55:17;;;;;;;5.30;2.30;;;;;;;20.57;88.84;98592.97;5109999;28;20205;-57
2023/08/07 05:57:44;;;;;;;3.00;2.40;;;;;;;20.84;89.13;98594.97;5109911;28;20739;-56
2023/08/07 06:00:15;;;;;;;2.43;2.10;;;;;;;21.02;86.27;98583.09;5109894;28;20204;-57
2023/08/07 06:02:42;;;;;;;2.57;1.97;;;;;;;21.20;86.59;98597.41;5109865;28;20204;-56
2023/08/07 06:05:12;;;;;;;2.57;2.07;;;;;;;21.34;84.65;98591.28;5110197;28;20215;-56
2023/08/07 06:07:38;;;;;;;2.57;1.90;;;;;;;21.37;83.91;98590.91;5109992;28;20280;-57
2023/08/07 06:10:07;;;;;;;4.23;2.23;;;;;;;21.31;82.56;98586.47;5109736;28;20592;-57
2023/08/07 06:12:35;;;;;;;2.53;1.87;;;;;;;21.45;84.60;98590.75;5109859;28;20201;-57
2023/08/07 06:15:02;;;;;;;3.17;1.93;;;;;;;21.57;84.07;98579.81;5109493;28;20209;-57
2023/08/07 06:17:29;;;;;;;2.93;2.10;;;;;;;21.52;83.81;98590.00;5109550;28;20240;-58
2023/08/07 06:19:56;;;;;;;2.07;1.87;;;;;;;21.70;84.38;98579.88;5109581;28;20201;-57
2023/08/07 06:22:23;;;;;;;13.60;2.00;;;;;;;21.67;79.87;98580.25;5109614;28;20201;-57
2023/08/07 06:24:49;;;;;;;2.50;2.10;;;;;;;21.90;81.50;98580.75;5109512;28;20201;-57
2023/08/07 06:27:16;;;;;;;2.17;1.77;;;;;;;21.76;79.34;98586.91;5109796;28;20234;-57
2023/08/07 06:29:45;;;;;;;2.70;2.00;;;;;;;22.03;81.45;98589.59;5108691;28;20680;-57
2023/08/07 06:32:12;;;;;;;3.73;2.10;;;;;;;22.22;81.70;98591.44;5108470;28;20518;-57
2023/08/07 06:34:38;;;;;;;2.43;1.87;;;;;;;22.42;78.92;98601.09;5109243;28;20205;-57
2023/08/07 06:37:06;;;;;;;2.65;1.88;;;;;;;22.71;79.53;98608.50;5109338;28;20228;-57
2023/08/07 06:39:33;;;;;;;2.63;2.00;;;;;;;22.69;77.75;98610.53;5109073;28;20211;-57
2023/08/07 06:42:00;;;;;;;2.60;2.03;;;;;;;22.85;77.50;98609.31;5108994;28;20204;-58
2023/08/07 06:44:27;;;;;;;2.85;2.05;;;;;;;22.85;77.12;98616.34;5109550;28;20250;-57
2023/08/07 06:46:55;;;;;;;2.30;1.80;;;;;;;23.17;78.29;98614.72;5109016;28;20194;-58
2023/08/07 06:49:23;;;;;;;2.65;2.03;;;;;;;23.16;71.33;98626.97;5109152;28;20198;-58
2023/08/07 06:51:50;;;;;;;2.10;1.90;;;;;;;23.01;72.91;98626.41;5108995;28;20201;-58
2023/08/07 06:54:16;;;;;;;2.28;1.88;;;;;;;23.30;76.39;98632.97;5108859;28;20202;-57
2023/08/07 06:56:44;;;;;;;2.00;1.80;;;;;;;23.32;71.17;98637.97;5108728;28;20237;-58
2023/08/07 06:59:11;;;;;;;2.33;1.83;;;;;;;23.36;70.49;98637.38;5108845;28;20280;-57
2023/08/07 07:01:38;;;;;;;2.53;1.88;;;;;;;23.31;70.42;98629.34;5108722;28;20213;-59
2023/08/07 07:04:06;;;;;;;13.05;6.78;;;;;;;23.39;71.31;98634.34;5108113;28;20198;-59
2023/08/07 07:06:34;;;;;;;12.30;6.47;;;;;;;23.47;71.86;98634.13;5108657;27;20664;-59
2023/08/07 07:09:01;;;;;;;4.43;2.55;;;;;;;23.67;74.84;98628.03;5108611;28;20682;-59
2023/08/07 07:11:27;;;;;;;2.53;2.00;;;;;;;23.75;68.73;98640.09;5108706;28;20197;-58
2023/08/07 07:13:54;;;;;;;4.68;2.95;;;;;;;23.76;68.12;98657.34;5108712;28;20204;-60
2023/08/07 07:16:22;;;;;;;3.25;2.63;;;;;;;23.93;73.37;98655.88;5108542;28;20198;-59
2023/08/07 07:18:49;;;;;;;4.05;2.72;;;;;;;23.79;66.74;98667.38;5108423;28;20285;-59
2023/08/07 07:21:17;;;;;;;3.00;2.40;;;;;;;24.01;66.76;98666.09;5108438;28;20197;-58
2023/08/07 07:23:44;;;;;;;2.58;2.20;;;;;;;23.99;67.01;98668.09;5108711;28;20204;-59
2023/08/07 07:26:11;;;;;;;1.73;1.63;;;;;;;24.21;66.55;98654.75;5108646;28;20589;-61
2023/08/07 07:28:37;;;;;;;1.70;1.60;;;;;;;24.38;70.08;98648.81;5108313;28;20197;-61
2023/08/07 07:31:05;;;;;;;2.47;1.75;;;;;;;24.44;64.26;98644.59;5108404;28;20204;-58
2023/08/07 07:33:31;;;;;;;2.85;1.85;;;;;;;24.68;66.95;98644.81;5108260;28;20202;-57
2023/08/07 07:35:58;;;;;;;1.85;1.63;;;;;;;24.72;66.22;98649.38;5108303;28;20204;-58
2023/08/07 07:38:27;;;;;;;2.47;1.67;;;;;;;24.77;63.99;98656.59;5108135;28;20225;-58
2023/08/07 07:40:56;;;;;;;2.20;1.80;;;;;;;24.81;65.88;98660.38;5108194;28;20193;-58
2023/08/07 07:43:23;;;;;;;1.55;1.45;;;;;;;24.91;60.93;98673.00;5108436;28;20564;-58
2023/08/07 07:45:50;;;;;;;2.13;1.60;;;;;;;24.94;62.46;98675.97;5108387;28;20205;-57
2023/08/07 07:48:17;;;;;;;1.88;1.60;;;;;;;25.15;63.85;98681.88;5108275;28;20205;-58
2023/08/07 07:50:44;;;;;;;1.88;1.60;;;;;;;25.10;61.45;98684.28;5108228;28;20208;-59
2023/08/07 07:53:10;;;;;;;1.92;1.48;;;;;;;25.13;61.92;98691.72;5108095;28;20888;-59
2023/08/07 07:55:39;;;;;;;2.20;1.67;;;;;;;25.23;59.54;98694.69;5108146;28;20194;-60
2023/08/07 07:58:06;;;;;;;1.50;1.40;;;;;;;25.38;62.01;98686.50;5108095;28;20730;-59
2023/08/07 08:00:32;;;;;;;1.80;1.50;;;;;;;25.46;60.31;98684.38;5108024;28;20193;-58
2023/08/07 08:03:00;;;;;;;1.73;1.50;;;;;;;25.63;59.31;98704.78;5108247;28;20257;-58
2023/08/07 08:05:27;;;;;;;1.80;1.55;;;;;;;25.87;62.19;98690.81;5108419;28;20205;-58
2023/08/07 08:07:54;;;;;;;1.63;1.48;;;;;;;25.91;58.75;98671.00;5108525;28;20194;-57
2023/08/07 08:10:21;;;;;;;1.40;1.30;;;;;;;26.03;55.89;98678.94;5108334;28;20373;-62
2023/08/07 08:12:49;;;;;;;1.85;1.65;;;;;;;26.15;56.95;98686.84;5107917;28;20280;-60
2023/08/07 08:15:16;;;;;;;2.83;1.92;;;;;;;26.28;57.35;98691.91;5109624;28;20212;-61
2023/08/07 08:17:43;;;;;;;2.78;1.90;;;;;;;26.36;56.16;98688.19;5111738;28;20229;-59
2023/08/07 08:20:10;;;;;;;2.67;2.17;;;;;;;26.54;55.29;98687.38;5111765;28;20697;-60
2023/08/07 08:22:37;;;;;;;2.92;2.28;;;;;;;26.58;56.04;98675.41;5112270;28;20209;-60
2023/08/07 08:25:06;;;;;;;7.28;3.65;;;;;;;26.37;54.39;98690.59;5111935;28;20193;-59
2023/08/07 08:27:33;;;;;;;3.38;2.50;;;;;;;26.46;56.16;98698.94;5111795;28;20199;-58
2023/08/07 08:30:01;;;;;;;3.15;2.50;;;;;;;26.61;55.32;98688.06;5111981;28;20617;-61
2023/08/07 08:32:28;;;;;;;1.92;1.70;;;;;;;26.77;57.44;98684.78;5111936;28;20197;-61
2023/08/07 08:34:55;;;;;;;2.03;1.70;;;;;;;26.98;55.45;98686.06;5111573;28;20197;-59
2023/08/07 08:37:22;;;;;;;1.45;1.35;;;;;;;27.03;53.84;98682.78;5111475;28;20231;-60
2023/08/07 08:39:49;;;;;;;2.00;1.73;;;;;;;27.15;52.36;98680.16;5111777;28;20197;-61
2023/08/07 08:42:17;;;;;;;1.60;1.50;;;;;;;27.28;50.72;98683.34;5111313;27;20201;-59
2023/08/07 08:44:47;;;;;;;2.38;1.58;;;;;;;27.07;50.77;98691.78;5111643;27;20202;-60
2023/08/07 08:47:16;;;;;;;1.70;1.60;;;;;;;27.34;62.99;98686.09;5111332;28;20259;-57
2023/08/07 08:49:48;;;;;;;1.60;1.50;;;;;;;27.31;51.27;98696.03;5111134;28;20194;-58
2023/08/07 08:52:15;;;;;;;1.67;1.58;;;;;;;27.29;51.67;98692.84;5111245;28;20694;-57
2023/08/07 08:54:42;;;;;;;1.52;1.30;;;;;;;27.02;49.63;98702.16;5111473;28;20250;-57
2023/08/07 08:57:10;;;;;;;1.67;1.48;;;;;;;27.34;52.89;98715.75;5111453;28;20213;-58
2023/08/07 08:59:37;;;;;;;2.40;1.90;;;;;;;27.57;52.85;98714.97;5111272;28;20197;-58
2023/08/07 09:02:05;;;;;;;2.00;1.63;;;;;;;27.50;51.46;98714.28;5111076;28;20202;-59
2023/08/07 09:04:33;;;;;;;1.75;1.52;;;;;;;27.70;51.38;98706.03;5110972;28;20200;-58
2023/08/07 09:07:01;;;;;;;1.70;1.40;;;;;;;27.81;51.43;98705.25;5110877;28;20597;-58
2023/08/07 09:09:29;;;;;;;1.90;1.60;;;;;;;27.71;48.11;98715.50;5111211;28;20693;-59
2023/08/07 09:11:58;;;;;;;1.88;1.60;;;;;;;27.99;56.42;98701.66;5110363;28;20197;-58
2023/08/07 09:14:30;;;;;;;1.52;1.30;;;;;;;28.41;51.60;98704.00;5110375;28;20204;-58
2023/08/07 09:17:00;;;;;;;1.42;1.33;;;;;;;28.38;46.60;98705.28;5110701;28;20201;-58
2023/08/07 09:19:27;;;;;;;1.50;1.40;;;;;;;28.57;52.58;98690.13;5110830;28;20216;-58
2023/08/07 09:21:55;;;;;;;1.80;1.30;;;;;;;28.54;47.12;98702.97;5110910;28;20205;-58
2023/08/07 09:24:22;;;;;;;1.63;1.40;;;;;;;28.52;52.11;98692.66;5110966;28;20194;-58
2023/08/07 09:26:51;;;;;;;1.60;1.50;;;;;;;28.78;48.68;98703.59;5110430;28;20197;-58
2023/08/07 09:29:18;;;;;;;1.40;1.30;;;;;;;28.71;48.04;98708.22;5110524;28;20201;-58
2023/08/07 09:31:46;;;;;;;1.60;1.30;;;;;;;28.87;45.49;98702.97;5110544;28;20601;-58
2023/08/07 09:34:14;;;;;;;1.60;1.50;;;;;;;28.71;45.05;98702.94;5110228;28;20217;-58
2023/08/07 09:36:42;;;;;;;1.75;1.60;;;;;;;28.86;48.60;98700.59;5110240;28;20201;-58
2023/08/07 09:39:11;;;;;;;1.48;1.38;;;;;;;28.87;47.96;98691.66;5110653;28;21029;-58
2023/08/07 09:41:38;;;;;;;1.30;1.20;;;;;;;28.98;48.44;98696.03;5110260;28;20674;-58
2023/08/07 09:44:08;;;;;;;1.90;1.60;;;;;;;28.96;45.24;98690.19;5110339;28;20206;-58
2023/08/07 09:46:42;;;;;;;2.95;1.45;;;;;;;28.87;45.55;98696.91;5110279;28;20198;-59
2023/08/07 09:49:09;;;;;;;1.20;1.00;;;;;;;29.08;47.55;98693.56;5110004;28;20202;-58
2023/08/07 09:51:44;;;;;;;1.20;1.05;;;;;;;29.04;44.21;98683.78;5110213;28;20210;-59
2023/08/07 09:54:12;;;;;;;1.42;1.30;;;;;;;29.23;43.91;98697.47;5110082;28;20205;-58
2023/08/07 09:56:39;;;;;;;1.40;1.30;;;;;;;29.02;41.49;98694.53;5110193;28;20223;-58
2023/08/07 09:59:06;;;;;;;1.20;1.10;;;;;;;29.02;43.37;98685.81;5109861;28;20237;-58
2023/08/07 10:01:33;;;;;;;1.23;1.13;;;;;;;29.21;43.84;98691.66;5109956;28;20201;-59
2023/08/07 10:04:01;;;;;;;1.42;1.00;;;;;;;29.05;42.31;98688.78;5109974;28;20586;-58
2023/08/07 10:06:28;;;;;;;1.02;1.00;;;;;;;29.24;43.09;98696.44;5109670;28;20197;-59
2023/08/07 10:08:57;;;;;;;1.00;1.00;;;;;;;29.31;43.13;98686.53;5110086;28;20568;-58
2023/08/07 10:11:25;;;;;;;1.10;1.00;;;;;;;29.47;42.42;98692.81;5109921;28;20672;-58
2023/08/07 10:13:52;;;;;;;1.00;0.90;;;;;;;29.40;42.04;98689.53;5109797;28;20202;-58
2023/08/07 10:16:19;;;;;;;1.15;0.80;;;;;;;29.51;40.36;98697.31;5109668;28;20206;-58
2023/08/07 10:18:45;;;;;;;1.02;0.75;;;;;;;29.29;44.29;98686.78;5109561;28;20245;-58
2023/08/07 10:21:12;;;;;;;1.85;0.85;;;;;;;29.26;40.53;98696.97;5109339;28;20201;-58
2023/08/07 10:23:40;;;;;;;1.00;0.90;;;;;;;29.53;40.50;98694.47;5109698;28;20262;-58
2023/08/07 10:26:10;;;;;;;0.80;0.80;;;;;;;29.87;42.07;98687.25;5109453;28;20197;-58
2023/08/07 10:28:40;;;;;;;2.33;0.90;;;;;;;29.74;41.21;98690.28;5109461;28;20583;-58
2023/08/07 10:31:08;;;;;;;0.80;0.80;;;;;;;29.81;41.79;98680.31;5109345;28;20194;-58
2023/08/07 10:33:35;;;;;;;0.80;0.80;;;;;;;29.95;39.03;98691.28;5109115;28;20247;-58
2023/08/07 10:36:10;;;;;;;0.80;0.80;;;;;;;30.11;40.88;98687.00;5109267;28;20200;-58
2023/08/07 10:38:37;;;;;;;0.80;0.70;;;;;;;30.24;41.93;98678.72;5108782;28;20676;-58
2023/08/07 10:41:08;;;;;;;0.60;0.60;;;;;;;30.26;41.29;98687.19;5109024;28;20284;-59
2023/08/07 10:43:39;;;;;;;0.73;0.73;;;;;;;30.19;40.78;98675.97;5109255;28;20213;-57
2023/08/07 10:46:07;;;;;;;1.10;0.95;;;;;;;30.30;40.04;98687.47;5109331;28;20204;-58
2023/08/07 10:48:41;;;;;;;0.70;0.70;;;;;;;29.98;37.13;98696.88;5108988;28;20247;-58
2023/08/07 10:51:08;;;;;;;1.23;0.80;;;;;;;29.63;38.46;98693.81;5109072;28;20208;-58
2023/08/07 10:53:40;;;;;;;0.70;0.70;;;;;;;29.50;37.91;98695.75;5108798;28;20193;-58
2023/08/07 10:56:09;;;;;;;0.65;0.60;;;;;;;29.69;39.76;98679.66;5108787;28;20207;-58
2023/08/07 10:58:39;;;;;;;1.10;0.90;;;;;;;29.89;39.44;98669.34;5108884;28;20232;-58
2023/08/07 11:01:23;;;;;;;1.20;0.70;;;;;;;29.72;36.96;98685.22;5108796;28;20194;-58
2023/08/07 11:03:52;;;;;;;0.70;0.70;;;;;;;29.55;37.51;98672.09;5108785;28;20225;-58
2023/08/07 11:06:23;;;;;;;0.70;0.70;;;;;;;29.77;37.72;98681.88;5108758;28;20199;-58
2023/08/07 11:08:52;;;;;;;0.70;0.70;;;;;;;29.83;37.33;98677.47;5108721;28;20380;-58
2023/08/07 11:11:19;;;;;;;0.73;0.73;;;;;;;29.96;38.67;98669.16;5108631;28;20201;-58
2023/08/07 11:13:47;;;;;;;0.80;0.80;;;;;;;29.94;37.96;98679.16;5108459;28;20212;-58
2023/08/07 11:16:14;;;;;;;0.93;0.77;;;;;;;30.15;41.89;98675.69;5108445;28;20204;-58
2023/08/07 11:18:42;;;;;;;0.80;0.80;;;;;;;30.14;38.20;98683.88;5108428;28;20225;-58
2023/08/07 11:21:11;;;;;;;0.80;0.80;;;;;;;30.29;40.60;98670.84;5108614;28;20212;-58
2023/08/07 11:23:37;;;;;;;0.98;0.90;;;;;;;30.44;40.11;98673.63;5108426;28;20209;-58
2023/08/07 11:26:05;;;;;;;2.10;0.98;;;;;;;30.43;37.92;98668.63;5108486;28;20674;-58
2023/08/07 11:28:32;;;;;;;1.05;0.90;;;;;;;30.30;40.05;98667.16;5108306;28;20202;-58
2023/08/07 11:31:01;;;;;;;0.90;0.90;;;;;;;30.48;39.88;98673.13;5108436;28;20205;-58